sensor_id;sensor_type;location;lat;lon;timestamp;P1;durP1;ratioP1;P2;durP2;ratioP2
79668;SDS011;69136;52.614;6.976;2023-12-07T00:01:00;14.38;;;7.88;;
79668;SDS011;69136;52.614;6.976;2023-12-07T00:03:44;12.05;;;7.07;;
79668;SDS011;69136;52.614;6.976;2023-12-07T00:06:29;12.50;;;7.38;;
79668;SDS011;69136;52.614;6.976;2023-12-07T00:09:13;13.30;;;7.78;;
79668;SDS011;69136;52.614;6.976;2023-12-07T00:11:58;13.40;;;7.78;;
79668;SDS011;69136;52.614;6.976;2023-12-07T00:14:43;12.55;;;7.55;;
79668;SDS011;69136;52.614;6.976;2023-12-07T00:20:11;11.23;;;6.72;;
79668;SDS011;69136;52.614;6.976;2023-12-07T00:22:56;12.07;;;6.43;;
79668;SDS011;69136;52.614;6.976;2023-12-07T00:25:49;10.93;;;6.63;;
79668;SDS011;69136;52.614;6.976;2023-12-07T00:28:33;14.25;;;6.93;;
79668;SDS011;69136;52.614;6.976;2023-12-07T00:31:18;10.70;;;6.47;;
79668;SDS011;69136;52.614;6.976;2023-12-07T00:34:04;11.63;;;6.18;;
79668;SDS011;69136;52.614;6.976;2023-12-07T00:36:48;9.77;;;6.80;;
79668;SDS011;69136;52.614;6.976;2023-12-07T00:39:32;13.50;;;7.18;;
79668;SDS011;69136;52.614;6.976;2023-12-07T00:42:17;9.48;;;6.18;;
79668;SDS011;69136;52.614;6.976;2023-12-07T00:45:01;10.23;;;5.85;;
79668;SDS011;69136;52.614;6.976;2023-12-07T00:47:47;11.93;;;6.90;;
79668;SDS011;69136;52.614;6.976;2023-12-07T00:50:31;11.15;;;7.03;;
79668;SDS011;69136;52.614;6.976;2023-12-07T00:53:15;13.05;;;6.60;;
79668;SDS011;69136;52.614;6.976;2023-12-07T00:55:59;10.32;;;6.88;;
79668;SDS011;69136;52.614;6.976;2023-12-07T00:58:43;12.65;;;6.75;;
79668;SDS011;69136;52.614;6.976;2023-12-07T01:01:28;10.50;;;6.32;;
79668;SDS011;69136;52.614;6.976;2023-12-07T01:04:12;10.95;;;6.32;;
79668;SDS011;69136;52.614;6.976;2023-12-07T01:06:56;12.70;;;6.90;;
79668;SDS011;69136;52.614;6.976;2023-12-07T01:09:40;11.15;;;6.13;;
79668;SDS011;69136;52.614;6.976;2023-12-07T01:12:24;11.05;;;6.57;;
79668;SDS011;69136;52.614;6.976;2023-12-07T01:15:09;10.02;;;6.43;;
79668;SDS011;69136;52.614;6.976;2023-12-07T01:17:53;12.32;;;6.45;;
79668;SDS011;69136;52.614;6.976;2023-12-07T01:20:37;9.93;;;5.95;;
79668;SDS011;69136;52.614;6.976;2023-12-07T01:23:21;10.35;;;6.00;;
79668;SDS011;69136;52.614;6.976;2023-12-07T01:26:04;9.93;;;6.32;;
79668;SDS011;69136;52.614;6.976;2023-12-07T01:28:49;9.38;;;5.90;;
79668;SDS011;69136;52.614;6.976;2023-12-07T01:31:33;10.50;;;6.25;;
79668;SDS011;69136;52.614;6.976;2023-12-07T01:34:17;10.52;;;6.28;;
79668;SDS011;69136;52.614;6.976;2023-12-07T01:37:02;11.05;;;6.38;;
79668;SDS011;69136;52.614;6.976;2023-12-07T01:39:46;11.60;;;6.53;;
79668;SDS011;69136;52.614;6.976;2023-12-07T01:42:30;10.45;;;5.57;;
79668;SDS011;69136;52.614;6.976;2023-12-07T01:45:14;14.43;;;7.03;;
79668;SDS011;69136;52.614;6.976;2023-12-07T01:47:58;12.85;;;6.43;;
79668;SDS011;69136;52.614;6.976;2023-12-07T01:50:43;12.45;;;6.88;;
79668;SDS011;69136;52.614;6.976;2023-12-07T01:53:27;10.95;;;6.15;;
79668;SDS011;69136;52.614;6.976;2023-12-07T01:56:12;11.15;;;6.50;;
79668;SDS011;69136;52.614;6.976;2023-12-07T01:58:56;14.00;;;6.88;;
79668;SDS011;69136;52.614;6.976;2023-12-07T02:01:40;9.07;;;5.25;;
79668;SDS011;69136;52.614;6.976;2023-12-07T02:04:24;12.07;;;6.85;;
79668;SDS011;69136;52.614;6.976;2023-12-07T02:07:09;10.32;;;6.20;;
79668;SDS011;69136;52.614;6.976;2023-12-07T07:22:29;22.25;;;11.52;;
79668;SDS011;69136;52.614;6.976;2023-12-07T07:25:13;23.58;;;12.57;;
79668;SDS011;69136;52.614;6.976;2023-12-07T07:27:59;23.45;;;12.98;;
79668;SDS011;69136;52.614;6.976;2023-12-07T07:30:44;23.98;;;12.35;;
79668;SDS011;69136;52.614;6.976;2023-12-07T07:33:28;26.35;;;13.63;;
79668;SDS011;69136;52.614;6.976;2023-12-07T07:36:12;23.15;;;12.15;;
79668;SDS011;69136;52.614;6.976;2023-12-07T07:38:58;22.08;;;12.18;;
79668;SDS011;69136;52.614;6.976;2023-12-07T07:41:45;22.40;;;11.30;;
79668;SDS011;69136;52.614;6.976;2023-12-07T07:44:29;23.83;;;12.40;;
79668;SDS011;69136;52.614;6.976;2023-12-07T07:47:13;24.05;;;12.15;;
79668;SDS011;69136;52.614;6.976;2023-12-07T07:49:57;24.77;;;12.65;;
79668;SDS011;69136;52.614;6.976;2023-12-07T07:52:42;27.80;;;13.02;;
79668;SDS011;69136;52.614;6.976;2023-12-07T07:55:26;23.60;;;12.35;;
79668;SDS011;69136;52.614;6.976;2023-12-07T07:58:10;21.23;;;11.70;;
79668;SDS011;69136;52.614;6.976;2023-12-07T08:00:54;26.45;;;13.57;;
79668;SDS011;69136;52.614;6.976;2023-12-07T08:03:38;23.80;;;12.13;;
79668;SDS011;69136;52.614;6.976;2023-12-07T08:06:23;24.83;;;13.05;;
79668;SDS011;69136;52.614;6.976;2023-12-07T08:09:10;24.73;;;11.98;;
79668;SDS011;69136;52.614;6.976;2023-12-07T08:11:54;24.48;;;11.98;;
79668;SDS011;69136;52.614;6.976;2023-12-07T08:14:38;27.13;;;13.77;;
79668;SDS011;69136;52.614;6.976;2023-12-07T08:20:09;26.33;;;11.60;;
79668;SDS011;69136;52.614;6.976;2023-12-07T08:22:54;22.75;;;12.52;;
79668;SDS011;69136;52.614;6.976;2023-12-07T08:25:38;17.92;;;10.45;;
79668;SDS011;69136;52.614;6.976;2023-12-07T08:28:22;21.67;;;11.90;;
79668;SDS011;69136;52.614;6.976;2023-12-07T08:31:07;23.67;;;12.05;;
79668;SDS011;69136;52.614;6.976;2023-12-07T08:33:51;20.13;;;11.43;;
79668;SDS011;69136;52.614;6.976;2023-12-07T08:36:36;20.95;;;10.80;;
79668;SDS011;69136;52.614;6.976;2023-12-07T08:39:20;19.52;;;10.10;;
79668;SDS011;69136;52.614;6.976;2023-12-07T08:42:05;18.60;;;9.90;;
79668;SDS011;69136;52.614;6.976;2023-12-07T08:44:49;19.60;;;10.10;;
79668;SDS011;69136;52.614;6.976;2023-12-07T08:47:33;21.95;;;10.25;;
79668;SDS011;69136;52.614;6.976;2023-12-07T08:50:18;18.35;;;10.15;;
79668;SDS011;69136;52.614;6.976;2023-12-07T08:53:02;30.83;;;11.73;;
79668;SDS011;69136;52.614;6.976;2023-12-07T08:55:47;25.10;;;10.05;;
79668;SDS011;69136;52.614;6.976;2023-12-07T08:58:31;22.30;;;9.93;;
79668;SDS011;69136;52.614;6.976;2023-12-07T09:01:16;18.63;;;10.88;;
79668;SDS011;69136;52.614;6.976;2023-12-07T09:04:00;20.02;;;10.07;;
79668;SDS011;69136;52.614;6.976;2023-12-07T09:06:45;32.38;;;12.57;;
79668;SDS011;69136;52.614;6.976;2023-12-07T09:09:28;26.20;;;11.77;;
79668;SDS011;69136;52.614;6.976;2023-12-07T09:12:13;23.60;;;12.60;;
79668;SDS011;69136;52.614;6.976;2023-12-07T09:14:58;21.90;;;10.88;;
79668;SDS011;69136;52.614;6.976;2023-12-07T09:17:42;30.65;;;11.40;;
79668;SDS011;69136;52.614;6.976;2023-12-07T09:20:27;27.90;;;12.70;;
79668;SDS011;69136;52.614;6.976;2023-12-07T09:23:14;25.27;;;11.77;;
79668;SDS011;69136;52.614;6.976;2023-12-07T09:26:00;32.63;;;12.38;;
79668;SDS011;69136;52.614;6.976;2023-12-07T09:28:47;21.92;;;11.63;;
79668;SDS011;69136;52.614;6.976;2023-12-07T09:31:31;22.75;;;11.48;;
79668;SDS011;69136;52.614;6.976;2023-12-07T09:34:15;28.00;;;13.20;;
79668;SDS011;69136;52.614;6.976;2023-12-07T09:37:05;27.25;;;13.27;;
79668;SDS011;69136;52.614;6.976;2023-12-07T09:39:52;31.55;;;14.63;;
79668;SDS011;69136;52.614;6.976;2023-12-07T09:42:37;35.80;;;14.68;;
79668;SDS011;69136;52.614;6.976;2023-12-07T09:45:23;33.67;;;13.85;;
79668;SDS011;69136;52.614;6.976;2023-12-07T09:48:07;27.70;;;11.77;;
79668;SDS011;69136;52.614;6.976;2023-12-07T09:50:52;32.78;;;14.15;;
79668;SDS011;69136;52.614;6.976;2023-12-07T09:53:39;31.08;;;13.43;;
79668;SDS011;69136;52.614;6.976;2023-12-07T09:56:26;36.45;;;13.63;;
79668;SDS011;69136;52.614;6.976;2023-12-07T09:59:10;33.50;;;14.35;;
79668;SDS011;69136;52.614;6.976;2023-12-07T10:01:55;40.45;;;14.23;;
79668;SDS011;69136;52.614;6.976;2023-12-07T10:04:39;35.45;;;15.05;;
79668;SDS011;69136;52.614;6.976;2023-12-07T10:07:31;35.28;;;14.98;;
79668;SDS011;69136;52.614;6.976;2023-12-07T10:10:20;34.25;;;15.70;;
79668;SDS011;69136;52.614;6.976;2023-12-07T10:13:04;38.28;;;16.20;;
79668;SDS011;69136;52.614;6.976;2023-12-07T10:15:48;44.42;;;15.38;;
79668;SDS011;69136;52.614;6.976;2023-12-07T10:18:49;39.90;;;15.43;;
79668;SDS011;69136;52.614;6.976;2023-12-07T10:21:33;36.10;;;14.82;;
79668;SDS011;69136;52.614;6.976;2023-12-07T10:24:18;50.35;;;15.45;;
79668;SDS011;69136;52.614;6.976;2023-12-07T10:27:04;44.17;;;13.77;;
79668;SDS011;69136;52.614;6.976;2023-12-07T10:29:50;35.33;;;15.98;;
79668;SDS011;69136;52.614;6.976;2023-12-07T10:32:37;38.20;;;14.80;;
79668;SDS011;69136;52.614;6.976;2023-12-07T10:35:23;40.60;;;14.70;;
79668;SDS011;69136;52.614;6.976;2023-12-07T10:38:10;45.28;;;16.17;;
79668;SDS011;69136;52.614;6.976;2023-12-07T10:41:03;43.70;;;14.95;;
79668;SDS011;69136;52.614;6.976;2023-12-07T10:46:38;56.63;;;16.27;;
79668;SDS011;69136;52.614;6.976;2023-12-07T10:49:25;45.92;;;17.17;;
79668;SDS011;69136;52.614;6.976;2023-12-07T10:52:12;44.78;;;16.27;;
79668;SDS011;69136;52.614;6.976;2023-12-07T10:55:02;51.95;;;16.08;;
79668;SDS011;69136;52.614;6.976;2023-12-07T10:57:48;63.95;;;15.35;;
79668;SDS011;69136;52.614;6.976;2023-12-07T11:00:32;48.00;;;15.30;;
79668;SDS011;69136;52.614;6.976;2023-12-07T11:03:17;52.03;;;16.23;;
79668;SDS011;69136;52.614;6.976;2023-12-07T11:06:01;54.08;;;17.00;;
79668;SDS011;69136;52.614;6.976;2023-12-07T11:08:56;44.78;;;17.00;;
79668;SDS011;69136;52.614;6.976;2023-12-07T11:11:50;45.58;;;17.85;;
79668;SDS011;69136;52.614;6.976;2023-12-07T11:14:38;61.30;;;18.60;;
79668;SDS011;69136;52.614;6.976;2023-12-07T11:17:23;44.58;;;15.70;;
79668;SDS011;69136;52.614;6.976;2023-12-07T11:20:07;57.00;;;18.30;;
79668;SDS011;69136;52.614;6.976;2023-12-07T11:22:52;49.50;;;16.67;;
79668;SDS011;69136;52.614;6.976;2023-12-07T11:25:39;63.22;;;16.70;;
79668;SDS011;69136;52.614;6.976;2023-12-07T11:28:36;49.13;;;16.38;;
79668;SDS011;69136;52.614;6.976;2023-12-07T11:31:22;68.65;;;18.42;;
79668;SDS011;69136;52.614;6.976;2023-12-07T11:34:07;53.90;;;17.25;;
79668;SDS011;69136;52.614;6.976;2023-12-07T11:39:41;59.45;;;18.30;;
79668;SDS011;69136;52.614;6.976;2023-12-07T11:42:26;55.25;;;17.30;;
79668;SDS011;69136;52.614;6.976;2023-12-07T11:45:10;66.80;;;19.58;;
79668;SDS011;69136;52.614;6.976;2023-12-07T11:48:11;60.22;;;17.50;;
79668;SDS011;69136;52.614;6.976;2023-12-07T11:53:54;72.40;;;20.50;;
79668;SDS011;69136;52.614;6.976;2023-12-07T11:56:38;71.25;;;19.95;;
79668;SDS011;69136;52.614;6.976;2023-12-07T11:59:23;77.03;;;21.10;;
79668;SDS011;69136;52.614;6.976;2023-12-07T12:02:12;67.63;;;20.02;;
79668;SDS011;69136;52.614;6.976;2023-12-07T12:04:58;70.40;;;21.73;;
79668;SDS011;69136;52.614;6.976;2023-12-07T12:07:45;61.05;;;20.25;;
79668;SDS011;69136;52.614;6.976;2023-12-07T12:10:29;74.50;;;21.23;;
79668;SDS011;69136;52.614;6.976;2023-12-07T12:13:13;73.65;;;20.65;;
79668;SDS011;69136;52.614;6.976;2023-12-07T12:15:58;79.22;;;22.23;;
79668;SDS011;69136;52.614;6.976;2023-12-07T12:18:42;71.93;;;22.15;;
79668;SDS011;69136;52.614;6.976;2023-12-07T12:21:27;85.93;;;24.90;;
79668;SDS011;69136;52.614;6.976;2023-12-07T12:24:11;70.32;;;21.35;;
79668;SDS011;69136;52.614;6.976;2023-12-07T12:26:55;80.15;;;22.85;;
79668;SDS011;69136;52.614;6.976;2023-12-07T12:29:43;71.88;;;22.88;;
79668;SDS011;69136;52.614;6.976;2023-12-07T12:32:27;70.30;;;21.08;;
79668;SDS011;69136;52.614;6.976;2023-12-07T12:35:11;65.43;;;21.33;;
79668;SDS011;69136;52.614;6.976;2023-12-07T12:37:58;71.45;;;20.80;;
79668;SDS011;69136;52.614;6.976;2023-12-07T12:40:43;72.97;;;22.63;;
79668;SDS011;69136;52.614;6.976;2023-12-07T12:43:27;68.35;;;22.20;;
79668;SDS011;69136;52.614;6.976;2023-12-07T12:46:13;75.80;;;27.42;;
79668;SDS011;69136;52.614;6.976;2023-12-07T12:48:58;73.82;;;28.08;;
79668;SDS011;69136;52.614;6.976;2023-12-07T12:51:44;67.32;;;22.75;;
79668;SDS011;69136;52.614;6.976;2023-12-07T12:54:31;68.82;;;22.23;;
79668;SDS011;69136;52.614;6.976;2023-12-07T12:57:20;67.13;;;22.27;;
79668;SDS011;69136;52.614;6.976;2023-12-07T13:00:04;70.03;;;22.35;;
79668;SDS011;69136;52.614;6.976;2023-12-07T13:02:50;69.60;;;23.88;;
79668;SDS011;69136;52.614;6.976;2023-12-07T13:05:34;68.85;;;22.77;;
79668;SDS011;69136;52.614;6.976;2023-12-07T13:08:20;70.13;;;21.80;;
79668;SDS011;69136;52.614;6.976;2023-12-07T13:11:05;71.10;;;22.98;;
79668;SDS011;69136;52.614;6.976;2023-12-07T13:13:49;62.20;;;21.55;;
79668;SDS011;69136;52.614;6.976;2023-12-07T13:16:34;66.07;;;20.10;;
79668;SDS011;69136;52.614;6.976;2023-12-07T13:19:18;67.68;;;20.10;;
79668;SDS011;69136;52.614;6.976;2023-12-07T13:22:03;70.53;;;24.13;;
79668;SDS011;69136;52.614;6.976;2023-12-07T13:24:48;65.38;;;21.55;;
79668;SDS011;69136;52.614;6.976;2023-12-07T13:27:34;67.97;;;21.70;;
79668;SDS011;69136;52.614;6.976;2023-12-07T13:30:18;69.57;;;22.25;;
79668;SDS011;69136;52.614;6.976;2023-12-07T13:33:02;60.13;;;21.33;;
79668;SDS011;69136;52.614;6.976;2023-12-07T13:35:47;55.05;;;20.30;;
79668;SDS011;69136;52.614;6.976;2023-12-07T13:38:32;64.40;;;20.40;;
79668;SDS011;69136;52.614;6.976;2023-12-07T13:41:18;61.22;;;22.13;;
79668;SDS011;69136;52.614;6.976;2023-12-07T13:44:03;56.42;;;19.50;;
79668;SDS011;69136;52.614;6.976;2023-12-07T13:46:48;59.72;;;20.60;;
79668;SDS011;69136;52.614;6.976;2023-12-07T13:49:32;58.10;;;22.02;;
79668;SDS011;69136;52.614;6.976;2023-12-07T13:52:17;58.42;;;22.13;;
79668;SDS011;69136;52.614;6.976;2023-12-07T13:55:01;53.30;;;20.08;;
79668;SDS011;69136;52.614;6.976;2023-12-07T13:57:46;54.45;;;19.00;;
79668;SDS011;69136;52.614;6.976;2023-12-07T14:00:29;54.20;;;18.70;;
79668;SDS011;69136;52.614;6.976;2023-12-07T14:03:13;53.55;;;19.33;;
79668;SDS011;69136;52.614;6.976;2023-12-07T14:05:58;58.40;;;20.17;;
79668;SDS011;69136;52.614;6.976;2023-12-07T14:08:42;53.33;;;20.13;;
79668;SDS011;69136;52.614;6.976;2023-12-07T14:11:26;52.08;;;19.00;;
79668;SDS011;69136;52.614;6.976;2023-12-07T14:14:10;54.13;;;20.83;;
79668;SDS011;69136;52.614;6.976;2023-12-07T14:16:57;61.58;;;22.38;;
79668;SDS011;69136;52.614;6.976;2023-12-07T14:19:42;60.53;;;23.30;;
79668;SDS011;69136;52.614;6.976;2023-12-07T14:22:26;54.13;;;21.48;;
79668;SDS011;69136;52.614;6.976;2023-12-07T14:25:10;63.42;;;22.50;;
79668;SDS011;69136;52.614;6.976;2023-12-07T14:27:55;61.83;;;20.13;;
79668;SDS011;69136;52.614;6.976;2023-12-07T14:30:39;59.97;;;20.65;;
79668;SDS011;69136;52.614;6.976;2023-12-07T14:33:22;57.80;;;19.02;;
79668;SDS011;69136;52.614;6.976;2023-12-07T14:36:09;62.75;;;20.17;;
79668;SDS011;69136;52.614;6.976;2023-12-07T14:38:55;55.38;;;18.80;;
79668;SDS011;69136;52.614;6.976;2023-12-07T14:41:39;56.58;;;18.15;;
79668;SDS011;69136;52.614;6.976;2023-12-07T14:44:25;47.33;;;17.00;;
79668;SDS011;69136;52.614;6.976;2023-12-07T14:47:10;54.40;;;16.88;;
79668;SDS011;69136;52.614;6.976;2023-12-07T14:49:55;56.00;;;19.27;;
79668;SDS011;69136;52.614;6.976;2023-12-07T14:52:39;55.60;;;17.70;;
79668;SDS011;69136;52.614;6.976;2023-12-07T14:55:23;51.67;;;17.50;;
79668;SDS011;69136;52.614;6.976;2023-12-07T14:58:07;50.45;;;17.65;;
79668;SDS011;69136;52.614;6.976;2023-12-07T15:00:51;47.58;;;16.70;;
79668;SDS011;69136;52.614;6.976;2023-12-07T15:03:36;53.97;;;19.77;;
79668;SDS011;69136;52.614;6.976;2023-12-07T15:06:20;52.08;;;18.35;;
79668;SDS011;69136;52.614;6.976;2023-12-07T15:11:50;49.85;;;18.35;;
79668;SDS011;69136;52.614;6.976;2023-12-07T15:14:34;53.80;;;19.65;;
79668;SDS011;69136;52.614;6.976;2023-12-07T15:17:18;49.20;;;19.33;;
79668;SDS011;69136;52.614;6.976;2023-12-07T15:20:02;52.55;;;19.08;;
79668;SDS011;69136;52.614;6.976;2023-12-07T15:22:47;55.50;;;18.80;;
79668;SDS011;69136;52.614;6.976;2023-12-07T15:25:32;51.83;;;19.13;;
79668;SDS011;69136;52.614;6.976;2023-12-07T15:28:15;50.55;;;17.42;;
79668;SDS011;69136;52.614;6.976;2023-12-07T15:30:59;50.75;;;18.77;;
79668;SDS011;69136;52.614;6.976;2023-12-07T15:33:43;52.67;;;18.77;;
79668;SDS011;69136;52.614;6.976;2023-12-07T15:36:28;51.95;;;17.15;;
79668;SDS011;69136;52.614;6.976;2023-12-07T15:39:12;53.97;;;19.60;;
79668;SDS011;69136;52.614;6.976;2023-12-07T15:41:56;49.15;;;17.85;;
79668;SDS011;69136;52.614;6.976;2023-12-07T15:44:40;48.35;;;17.58;;
79668;SDS011;69136;52.614;6.976;2023-12-07T15:47:25;49.22;;;19.17;;
79668;SDS011;69136;52.614;6.976;2023-12-07T15:50:09;57.97;;;19.98;;
79668;SDS011;69136;52.614;6.976;2023-12-07T15:52:54;51.15;;;17.42;;
79668;SDS011;69136;52.614;6.976;2023-12-07T15:55:38;52.08;;;19.38;;
79668;SDS011;69136;52.614;6.976;2023-12-07T15:58:22;45.33;;;16.13;;
79668;SDS011;69136;52.614;6.976;2023-12-07T16:01:06;52.47;;;17.55;;
79668;SDS011;69136;52.614;6.976;2023-12-07T16:03:50;51.00;;;18.38;;
79668;SDS011;69136;52.614;6.976;2023-12-07T16:06:34;51.85;;;19.40;;
79668;SDS011;69136;52.614;6.976;2023-12-07T16:09:18;51.95;;;18.02;;
79668;SDS011;69136;52.614;6.976;2023-12-07T16:12:02;51.30;;;17.60;;
79668;SDS011;69136;52.614;6.976;2023-12-07T16:14:48;50.50;;;19.13;;
79668;SDS011;69136;52.614;6.976;2023-12-07T16:17:34;51.85;;;18.90;;
79668;SDS011;69136;52.614;6.976;2023-12-07T16:20:18;55.15;;;20.30;;
79668;SDS011;69136;52.614;6.976;2023-12-07T16:23:04;58.80;;;21.25;;
79668;SDS011;69136;52.614;6.976;2023-12-07T16:25:48;54.97;;;19.65;;
79668;SDS011;69136;52.614;6.976;2023-12-07T16:28:33;49.92;;;18.92;;
79668;SDS011;69136;52.614;6.976;2023-12-07T16:31:17;54.35;;;19.35;;
79668;SDS011;69136;52.614;6.976;2023-12-07T16:34:01;55.17;;;19.50;;
79668;SDS011;69136;52.614;6.976;2023-12-07T16:36:46;51.20;;;17.17;;
79668;SDS011;69136;52.614;6.976;2023-12-07T16:39:30;45.83;;;19.02;;
79668;SDS011;69136;52.614;6.976;2023-12-07T16:42:14;44.38;;;17.83;;
79668;SDS011;69136;52.614;6.976;2023-12-07T16:44:59;48.45;;;16.40;;
79668;SDS011;69136;52.614;6.976;2023-12-07T16:47:44;48.22;;;17.13;;
79668;SDS011;69136;52.614;6.976;2023-12-07T16:50:31;48.20;;;18.45;;
79668;SDS011;69136;52.614;6.976;2023-12-07T16:53:15;51.00;;;18.23;;
79668;SDS011;69136;52.614;6.976;2023-12-07T16:55:59;54.70;;;20.75;;
79668;SDS011;69136;52.614;6.976;2023-12-07T16:58:44;50.00;;;18.13;;
79668;SDS011;69136;52.614;6.976;2023-12-07T17:01:28;58.63;;;20.95;;
79668;SDS011;69136;52.614;6.976;2023-12-07T17:04:12;55.95;;;19.15;;
79668;SDS011;69136;52.614;6.976;2023-12-07T17:06:56;49.15;;;20.52;;
79668;SDS011;69136;52.614;6.976;2023-12-07T17:09:40;52.13;;;19.42;;
79668;SDS011;69136;52.614;6.976;2023-12-07T17:12:24;53.65;;;20.77;;
79668;SDS011;69136;52.614;6.976;2023-12-07T17:15:08;47.58;;;18.13;;
79668;SDS011;69136;52.614;6.976;2023-12-07T17:17:53;50.10;;;20.10;;
79668;SDS011;69136;52.614;6.976;2023-12-07T17:20:37;55.15;;;19.30;;
79668;SDS011;69136;52.614;6.976;2023-12-07T17:23:21;57.80;;;19.60;;
79668;SDS011;69136;52.614;6.976;2023-12-07T17:26:05;52.63;;;20.20;;
79668;SDS011;69136;52.614;6.976;2023-12-07T17:28:50;53.00;;;20.10;;
79668;SDS011;69136;52.614;6.976;2023-12-07T17:31:34;50.97;;;19.23;;
79668;SDS011;69136;52.614;6.976;2023-12-07T17:34:17;48.53;;;19.23;;
79668;SDS011;69136;52.614;6.976;2023-12-07T17:37:02;50.45;;;18.33;;
79668;SDS011;69136;52.614;6.976;2023-12-07T17:39:48;50.75;;;17.98;;
79668;SDS011;69136;52.614;6.976;2023-12-07T17:42:34;51.78;;;18.42;;
79668;SDS011;69136;52.614;6.976;2023-12-07T17:45:18;55.50;;;18.88;;
79668;SDS011;69136;52.614;6.976;2023-12-07T17:48:02;49.97;;;17.55;;
79668;SDS011;69136;52.614;6.976;2023-12-07T17:50:48;50.83;;;18.88;;
79668;SDS011;69136;52.614;6.976;2023-12-07T17:53:33;53.13;;;18.38;;
79668;SDS011;69136;52.614;6.976;2023-12-07T17:56:17;48.50;;;17.17;;
79668;SDS011;69136;52.614;6.976;2023-12-07T17:59:01;47.95;;;18.27;;
79668;SDS011;69136;52.614;6.976;2023-12-07T18:01:46;50.90;;;17.80;;
79668;SDS011;69136;52.614;6.976;2023-12-07T18:04:39;58.55;;;18.77;;
79668;SDS011;69136;52.614;6.976;2023-12-07T18:07:23;55.88;;;19.15;;
79668;SDS011;69136;52.614;6.976;2023-12-07T18:10:07;50.97;;;16.77;;
79668;SDS011;69136;52.614;6.976;2023-12-07T18:12:51;49.45;;;19.55;;
79668;SDS011;69136;52.614;6.976;2023-12-07T18:15:35;49.58;;;18.52;;
79668;SDS011;69136;52.614;6.976;2023-12-07T18:18:19;47.88;;;18.23;;
79668;SDS011;69136;52.614;6.976;2023-12-07T18:23:48;52.40;;;18.85;;
79668;SDS011;69136;52.614;6.976;2023-12-07T18:26:33;49.65;;;18.50;;
79668;SDS011;69136;52.614;6.976;2023-12-07T18:29:19;50.40;;;18.15;;
79668;SDS011;69136;52.614;6.976;2023-12-07T18:32:03;57.45;;;18.67;;
79668;SDS011;69136;52.614;6.976;2023-12-07T18:34:47;50.17;;;17.70;;
79668;SDS011;69136;52.614;6.976;2023-12-07T18:37:32;45.33;;;16.77;;
79668;SDS011;69136;52.614;6.976;2023-12-07T18:40:16;48.33;;;18.38;;
79668;SDS011;69136;52.614;6.976;2023-12-07T18:43:00;46.03;;;17.95;;
79668;SDS011;69136;52.614;6.976;2023-12-07T18:45:44;50.67;;;17.77;;
79668;SDS011;69136;52.614;6.976;2023-12-07T18:48:29;44.45;;;17.80;;
79668;SDS011;69136;52.614;6.976;2023-12-07T18:51:13;53.17;;;18.60;;
79668;SDS011;69136;52.614;6.976;2023-12-07T18:53:57;49.30;;;17.70;;
79668;SDS011;69136;52.614;6.976;2023-12-07T18:56:45;49.28;;;17.38;;
79668;SDS011;69136;52.614;6.976;2023-12-07T18:59:29;43.58;;;17.48;;
79668;SDS011;69136;52.614;6.976;2023-12-07T19:02:14;47.33;;;18.67;;
79668;SDS011;69136;52.614;6.976;2023-12-07T19:04:58;51.33;;;17.58;;
79668;SDS011;69136;52.614;6.976;2023-12-07T19:07:42;50.00;;;17.20;;
79668;SDS011;69136;52.614;6.976;2023-12-07T19:10:26;44.13;;;16.65;;
79668;SDS011;69136;52.614;6.976;2023-12-07T19:13:10;43.53;;;18.90;;
79668;SDS011;69136;52.614;6.976;2023-12-07T19:15:54;42.28;;;16.42;;
79668;SDS011;69136;52.614;6.976;2023-12-07T19:18:38;42.80;;;16.30;;
79668;SDS011;69136;52.614;6.976;2023-12-07T19:21:23;41.15;;;17.52;;
79668;SDS011;69136;52.614;6.976;2023-12-07T19:24:08;49.50;;;16.80;;
79668;SDS011;69136;52.614;6.976;2023-12-07T19:26:52;39.38;;;16.00;;
79668;SDS011;69136;52.614;6.976;2023-12-07T19:29:36;41.03;;;16.73;;
79668;SDS011;69136;52.614;6.976;2023-12-07T19:32:20;40.13;;;16.15;;
79668;SDS011;69136;52.614;6.976;2023-12-07T19:35:05;43.70;;;16.33;;
79668;SDS011;69136;52.614;6.976;2023-12-07T19:37:50;40.97;;;15.82;;
79668;SDS011;69136;52.614;6.976;2023-12-07T19:40:34;41.92;;;15.82;;
79668;SDS011;69136;52.614;6.976;2023-12-07T19:43:19;35.17;;;14.52;;
79668;SDS011;69136;52.614;6.976;2023-12-07T19:46:03;34.47;;;13.48;;
79668;SDS011;69136;52.614;6.976;2023-12-07T19:48:47;33.85;;;14.45;;
79668;SDS011;69136;52.614;6.976;2023-12-07T19:51:31;34.38;;;13.45;;
79668;SDS011;69136;52.614;6.976;2023-12-07T19:54:16;31.08;;;14.93;;
79668;SDS011;69136;52.614;6.976;2023-12-07T19:57:01;33.30;;;13.88;;
79668;SDS011;69136;52.614;6.976;2023-12-07T19:59:46;31.58;;;14.07;;
79668;SDS011;69136;52.614;6.976;2023-12-07T20:02:30;29.20;;;12.27;;
79668;SDS011;69136;52.614;6.976;2023-12-07T20:05:18;27.23;;;11.35;;
79668;SDS011;69136;52.614;6.976;2023-12-07T20:08:02;31.65;;;12.57;;
79668;SDS011;69136;52.614;6.976;2023-12-07T20:10:47;27.45;;;13.13;;
79668;SDS011;69136;52.614;6.976;2023-12-07T20:13:31;33.25;;;12.07;;
79668;SDS011;69136;52.614;6.976;2023-12-07T20:16:15;27.77;;;11.05;;
79668;SDS011;69136;52.614;6.976;2023-12-07T20:19:00;29.02;;;13.02;;
79668;SDS011;69136;52.614;6.976;2023-12-07T20:21:45;28.13;;;12.75;;
79668;SDS011;69136;52.614;6.976;2023-12-07T20:24:29;28.02;;;11.98;;
79668;SDS011;69136;52.614;6.976;2023-12-07T20:27:13;24.27;;;11.20;;
79668;SDS011;69136;52.614;6.976;2023-12-07T20:29:57;26.33;;;12.38;;
79668;SDS011;69136;52.614;6.976;2023-12-07T20:32:41;24.00;;;12.35;;
79668;SDS011;69136;52.614;6.976;2023-12-07T20:35:26;26.27;;;11.75;;
79668;SDS011;69136;52.614;6.976;2023-12-07T20:38:09;23.15;;;11.40;;
79668;SDS011;69136;52.614;6.976;2023-12-07T20:40:54;25.17;;;12.50;;
79668;SDS011;69136;52.614;6.976;2023-12-07T20:43:39;25.27;;;11.82;;
79668;SDS011;69136;52.614;6.976;2023-12-07T20:46:23;21.42;;;9.82;;
79668;SDS011;69136;52.614;6.976;2023-12-07T20:49:08;25.48;;;11.77;;
79668;SDS011;69136;52.614;6.976;2023-12-07T20:51:52;24.67;;;11.50;;
79668;SDS011;69136;52.614;6.976;2023-12-07T20:54:36;21.08;;;10.13;;
79668;SDS011;69136;52.614;6.976;2023-12-07T20:57:20;21.33;;;10.20;;
79668;SDS011;69136;52.614;6.976;2023-12-07T21:00:05;21.77;;;10.43;;
79668;SDS011;69136;52.614;6.976;2023-12-07T21:02:50;23.05;;;10.45;;
79668;SDS011;69136;52.614;6.976;2023-12-07T21:05:34;21.67;;;10.18;;
79668;SDS011;69136;52.614;6.976;2023-12-07T21:08:18;23.15;;;9.95;;
79668;SDS011;69136;52.614;6.976;2023-12-07T21:11:02;20.48;;;9.40;;
79668;SDS011;69136;52.614;6.976;2023-12-07T21:13:47;19.85;;;9.65;;
79668;SDS011;69136;52.614;6.976;2023-12-07T21:16:31;20.90;;;9.38;;
79668;SDS011;69136;52.614;6.976;2023-12-07T21:19:15;16.85;;;8.70;;
79668;SDS011;69136;52.614;6.976;2023-12-07T21:22:00;19.77;;;9.38;;
79668;SDS011;69136;52.614;6.976;2023-12-07T21:24:44;18.30;;;8.35;;
79668;SDS011;69136;52.614;6.976;2023-12-07T21:27:29;20.95;;;8.77;;
79668;SDS011;69136;52.614;6.976;2023-12-07T21:30:13;20.25;;;9.43;;
79668;SDS011;69136;52.614;6.976;2023-12-07T21:32:58;18.13;;;8.20;;
79668;SDS011;69136;52.614;6.976;2023-12-07T21:35:41;18.38;;;8.77;;
79668;SDS011;69136;52.614;6.976;2023-12-07T21:38:25;18.10;;;8.43;;